EZY27A LIBD-LDSP
Flight info
| Callsign | EZY27A |
|---|---|
| Flight time | 0h 32m |
| Altitude | 22000 |
| Route | BANAV DCT RILIM |
| Aircraft | A320/M-SDE3FGHIRWY/LB1 |
Departure
| Time | 2026-04-27 13:48 |
|---|---|
| Airport | Bari Karol Wojtyła International Airport (LIBD) |
Arrival
| Time | 2026-04-27 14:20 |
|---|---|
| Airport | Split Saint Jerome Airport (LDSP) |
| Time | Latitude | Longitude | Altitude | Speed | Heading |
|---|---|---|---|---|---|
| 2026-04-27 13:48 | 41.15213 | 16.80876 | 2665 ft | 207 kts | 68° |
| 2026-04-27 13:48 | 41.15742 | 16.82758 | 3056 ft | 226 kts | 68° |
| 2026-04-27 13:49 | 41.16322 | 16.84819 | 3471 ft | 251 kts | 68° |
| 2026-04-27 13:49 | 41.16949 | 16.87040 | 4209 ft | 261 kts | 69° |
| 2026-04-27 13:49 | 41.17610 | 16.89308 | 5132 ft | 266 kts | 64° |
| 2026-04-27 13:49 | 41.18739 | 16.91240 | 6047 ft | 269 kts | 37° |
| 2026-04-27 13:50 | 41.20439 | 16.92290 | 6887 ft | 277 kts | 9° |
| 2026-04-27 13:50 | 41.22378 | 16.92139 | 7675 ft | 284 kts | 345° |
| 2026-04-27 13:50 | 41.24287 | 16.91430 | 8605 ft | 286 kts | 343° |
| 2026-04-27 13:50 | 41.26218 | 16.90704 | 9546 ft | 289 kts | 344° |
| 2026-04-27 13:51 | 41.28166 | 16.89973 | 10428 ft | 292 kts | 344° |
| 2026-04-27 13:51 | 41.30186 | 16.89217 | 10872 ft | 313 kts | 344° |
| 2026-04-27 13:51 | 41.32360 | 16.88412 | 11163 ft | 336 kts | 344° |
| 2026-04-27 13:51 | 41.34664 | 16.87565 | 11716 ft | 347 kts | 345° |
| 2026-04-27 13:52 | 41.37030 | 16.87035 | 12458 ft | 352 kts | 357° |
| 2026-04-27 13:52 | 41.39486 | 16.87252 | 13244 ft | 357 kts | 10° |
| 2026-04-27 13:52 | 41.41873 | 16.88207 | 14013 ft | 361 kts | 19° |
| 2026-04-27 13:52 | 41.44243 | 16.89358 | 14700 ft | 364 kts | 19° |
| 2026-04-27 13:53 | 41.49052 | 16.91679 | 16067 ft | 371 kts | 19° |
| 2026-04-27 13:53 | 41.51489 | 16.92854 | 16752 ft | 374 kts | 19° |
| 2026-04-27 13:53 | 41.53953 | 16.94009 | 17428 ft | 377 kts | 17° |
| 2026-04-27 13:54 | 41.56469 | 16.95047 | 18110 ft | 380 kts | 15° |
| 2026-04-27 13:54 | 41.59032 | 16.96010 | 18723 ft | 383 kts | 14° |
| 2026-04-27 13:54 | 41.61621 | 16.96938 | 19312 ft | 386 kts | 13° |
| 2026-04-27 13:54 | 41.64227 | 16.97868 | 19902 ft | 390 kts | 13° |
| 2026-04-27 13:55 | 41.66852 | 16.98822 | 20495 ft | 393 kts | 14° |
| 2026-04-27 13:55 | 41.69496 | 16.99808 | 21083 ft | 396 kts | 13° |
| 2026-04-27 13:55 | 41.72200 | 17.00531 | 21651 ft | 397 kts | 4° |
| 2026-04-27 13:55 | 41.74959 | 17.00620 | 22016 ft | 397 kts | 354° |
| 2026-04-27 13:56 | 41.77698 | 17.00127 | 22099 ft | 401 kts | 349° |
| 2026-04-27 13:56 | 41.80436 | 16.99522 | 22106 ft | 405 kts | 347° |
| 2026-04-27 13:56 | 41.83119 | 16.98393 | 22103 ft | 404 kts | 338° |
| 2026-04-27 13:56 | 41.85757 | 16.97095 | 22108 ft | 404 kts | 338° |
| 2026-04-27 13:57 | 41.88397 | 16.95795 | 22104 ft | 404 kts | 338° |
| 2026-04-27 13:57 | 41.91040 | 16.94490 | 22107 ft | 404 kts | 338° |
| 2026-04-27 13:57 | 41.93678 | 16.93181 | 22106 ft | 404 kts | 338° |
| 2026-04-27 13:57 | 41.96313 | 16.91869 | 22103 ft | 404 kts | 338° |
| 2026-04-27 13:58 | 41.98949 | 16.90554 | 22101 ft | 404 kts | 338° |
| 2026-04-27 13:58 | 42.01581 | 16.89241 | 22104 ft | 404 kts | 338° |
| 2026-04-27 13:58 | 42.04209 | 16.87928 | 22108 ft | 403 kts | 338° |
| 2026-04-27 13:58 | 42.06842 | 16.86613 | 22102 ft | 403 kts | 338° |
| 2026-04-27 13:59 | 42.09471 | 16.85300 | 22098 ft | 403 kts | 338° |
| 2026-04-27 13:59 | 42.12102 | 16.83987 | 22099 ft | 403 kts | 338° |
| 2026-04-27 13:59 | 42.14730 | 16.82675 | 22105 ft | 403 kts | 338° |
| 2026-04-27 13:59 | 42.17366 | 16.81357 | 22104 ft | 403 kts | 338° |
| 2026-04-27 14:00 | 42.19996 | 16.80038 | 22101 ft | 403 kts | 338° |
| 2026-04-27 14:00 | 42.22586 | 16.78738 | 22099 ft | 403 kts | 338° |
| 2026-04-27 14:00 | 42.25210 | 16.77419 | 22096 ft | 403 kts | 338° |
| 2026-04-27 14:00 | 42.27847 | 16.76094 | 22100 ft | 403 kts | 338° |
| 2026-04-27 14:01 | 42.30501 | 16.74759 | 22103 ft | 409 kts | 338° |
| 2026-04-27 14:01 | 42.33170 | 16.73412 | 22111 ft | 411 kts | 338° |
| 2026-04-27 14:01 | 42.35825 | 16.72070 | 22107 ft | 411 kts | 338° |
| 2026-04-27 14:01 | 42.38504 | 16.70718 | 22111 ft | 411 kts | 338° |
| 2026-04-27 14:02 | 42.41184 | 16.69366 | 22110 ft | 411 kts | 338° |
| 2026-04-27 14:02 | 42.43868 | 16.68014 | 22106 ft | 411 kts | 338° |
| 2026-04-27 14:02 | 42.46551 | 16.66657 | 22112 ft | 411 kts | 338° |
| 2026-04-27 14:02 | 42.49236 | 16.65294 | 22113 ft | 411 kts | 338° |
| 2026-04-27 14:03 | 42.51915 | 16.63931 | 22047 ft | 412 kts | 338° |
| 2026-04-27 14:03 | 42.54590 | 16.62571 | 21378 ft | 408 kts | 338° |
| 2026-04-27 14:03 | 42.57256 | 16.61217 | 20685 ft | 406 kts | 338° |
| 2026-04-27 14:03 | 42.59848 | 16.59903 | 20206 ft | 399 kts | 338° |
| 2026-04-27 14:04 | 42.62433 | 16.58591 | 19695 ft | 393 kts | 339° |
| 2026-04-27 14:04 | 42.64984 | 16.57295 | 19207 ft | 389 kts | 339° |
| 2026-04-27 14:04 | 42.67504 | 16.56014 | 18712 ft | 385 kts | 339° |
| 2026-04-27 14:04 | 42.70015 | 16.54736 | 18173 ft | 382 kts | 339° |
| 2026-04-27 14:05 | 42.72497 | 16.53466 | 17648 ft | 379 kts | 339° |
| 2026-04-27 14:05 | 42.74931 | 16.52217 | 17133 ft | 376 kts | 339° |
| 2026-04-27 14:05 | 42.77378 | 16.50961 | 16534 ft | 376 kts | 339° |
| 2026-04-27 14:05 | 42.79799 | 16.49719 | 15990 ft | 370 kts | 339° |
| 2026-04-27 14:06 | 42.82208 | 16.48486 | 15468 ft | 369 kts | 339° |
| 2026-04-27 14:06 | 42.84603 | 16.47261 | 14935 ft | 366 kts | 339° |
| 2026-04-27 14:06 | 42.86986 | 16.46043 | 14404 ft | 364 kts | 339° |
| 2026-04-27 14:06 | 42.89355 | 16.44827 | 13869 ft | 362 kts | 339° |
| 2026-04-27 14:07 | 42.91703 | 16.43616 | 13203 ft | 359 kts | 339° |
| 2026-04-27 14:07 | 42.94027 | 16.42419 | 12465 ft | 356 kts | 339° |
| 2026-04-27 14:07 | 42.96315 | 16.41244 | 11761 ft | 353 kts | 339° |
| 2026-04-27 14:07 | 42.98604 | 16.40066 | 11071 ft | 351 kts | 339° |
| 2026-04-27 14:08 | 43.00888 | 16.38889 | 10381 ft | 349 kts | 339° |
| 2026-04-27 14:08 | 43.03131 | 16.37733 | 9896 ft | 334 kts | 339° |
| 2026-04-27 14:08 | 43.05218 | 16.36657 | 9754 ft | 307 kts | 339° |
| 2026-04-27 14:08 | 43.06530 | 16.35978 | 9648 ft | 291 kts | 339° |
| 2026-04-27 14:09 | 43.08360 | 16.35028 | 9205 ft | 280 kts | 339° |
| 2026-04-27 14:09 | 43.10167 | 16.34090 | 8607 ft | 276 kts | 339° |
| 2026-04-27 14:09 | 43.11960 | 16.33162 | 7973 ft | 274 kts | 339° |
| 2026-04-27 14:09 | 43.13735 | 16.32244 | 7344 ft | 272 kts | 339° |
| 2026-04-27 14:10 | 43.15502 | 16.31332 | 6724 ft | 270 kts | 339° |
| 2026-04-27 14:10 | 43.17253 | 16.30425 | 6074 ft | 268 kts | 339° |
| 2026-04-27 14:10 | 43.18969 | 16.29534 | 5458 ft | 265 kts | 339° |
| 2026-04-27 14:10 | 43.20687 | 16.28640 | 4841 ft | 263 kts | 339° |
| 2026-04-27 14:11 | 43.22391 | 16.27754 | 4221 ft | 260 kts | 339° |
| 2026-04-27 14:11 | 43.24074 | 16.26880 | 4020 ft | 253 kts | 339° |
| 2026-04-27 14:11 | 43.25673 | 16.26046 | 3992 ft | 237 kts | 339° |
| 2026-04-27 14:11 | 43.27159 | 16.25272 | 4001 ft | 222 kts | 339° |
| 2026-04-27 14:12 | 43.28574 | 16.24535 | 3989 ft | 210 kts | 339° |
| 2026-04-27 14:12 | 43.29907 | 16.23840 | 4000 ft | 200 kts | 339° |
| 2026-04-27 14:12 | 43.31199 | 16.23166 | 3999 ft | 198 kts | 339° |
| 2026-04-27 14:12 | 43.32517 | 16.22725 | 4004 ft | 198 kts | 354° |
| 2026-04-27 14:13 | 43.33890 | 16.22747 | 4006 ft | 197 kts | 9° |
| 2026-04-27 14:13 | 43.35216 | 16.23233 | 4004 ft | 197 kts | 24° |
| 2026-04-27 14:13 | 43.36413 | 16.24136 | 4003 ft | 196 kts | 38° |
| 2026-04-27 14:13 | 43.37443 | 16.25342 | 3911 ft | 194 kts | 43° |
| 2026-04-27 14:14 | 43.38456 | 16.26576 | 3751 ft | 193 kts | 43° |
| 2026-04-27 14:14 | 43.39437 | 16.27766 | 3646 ft | 182 kts | 43° |
| 2026-04-27 14:14 | 43.40354 | 16.28877 | 3473 ft | 171 kts | 43° |
| 2026-04-27 14:14 | 43.41231 | 16.29939 | 3100 ft | 170 kts | 43° |
| 2026-04-27 14:15 | 43.42111 | 16.31005 | 3015 ft | 169 kts | 43° |
| 2026-04-27 14:15 | 43.42996 | 16.32083 | 3010 ft | 170 kts | 43° |
| 2026-04-27 14:15 | 43.43886 | 16.33166 | 3009 ft | 171 kts | 44° |
| 2026-04-27 14:15 | 43.44778 | 16.34251 | 2991 ft | 172 kts | 43° |
| 2026-04-27 14:16 | 43.45672 | 16.35341 | 2743 ft | 171 kts | 43° |
| 2026-04-27 14:16 | 43.46561 | 16.36423 | 2505 ft | 169 kts | 43° |
| 2026-04-27 14:16 | 43.47445 | 16.37499 | 2267 ft | 170 kts | 44° |
| 2026-04-27 14:16 | 43.48333 | 16.38579 | 2034 ft | 170 kts | 44° |
| 2026-04-27 14:17 | 43.49221 | 16.39618 | 1789 ft | 170 kts | 36° |
| 2026-04-27 14:17 | 43.50352 | 16.39924 | 1416 ft | 168 kts | 354° |
| 2026-04-27 14:17 | 43.51513 | 16.39928 | 1090 ft | 162 kts | 5° |
| 2026-04-27 14:17 | 43.52573 | 16.40135 | 927 ft | 147 kts | 2° |
| 2026-04-27 14:18 | 43.53531 | 16.39904 | 693 ft | 136 kts | 329° |
| 2026-04-27 14:18 | 43.54231 | 16.39074 | 638 ft | 133 kts | 300° |
| 2026-04-27 14:18 | 43.54769 | 16.38031 | 626 ft | 133 kts | 306° |
| 2026-04-27 14:18 | 43.55354 | 16.37025 | 610 ft | 135 kts | 298° |
| 2026-04-27 14:19 | 43.55695 | 16.35878 | 611 ft | 129 kts | 278° |
| 2026-04-27 14:19 | 43.55735 | 16.34660 | 597 ft | 129 kts | 261° |
| 2026-04-27 14:19 | 43.55578 | 16.33430 | 545 ft | 131 kts | 255° |
| 2026-04-27 14:19 | 43.55252 | 16.32270 | 327 ft | 129 kts | 239° |
| 2026-04-27 14:20 | 43.54728 | 16.31284 | 117 ft | 126 kts | 231° |
| 2026-04-27 14:20 | 43.54215 | 16.30369 | 62 ft | 105 kts | 232° |
| 2026-04-27 14:20 | 43.53885 | 16.29777 | 81 ft | 52 kts | 233° |
| 2026-04-27 14:20 | 43.53768 | 16.29545 | 84 ft | 16 kts | 239° |
| 2026-04-27 14:21 | 43.53721 | 16.29498 | 87 ft | 5 kts | 180° |
| 2026-04-27 14:21 | 43.53702 | 16.29525 | 85 ft | 4 kts | 114° |
| 2026-04-27 14:21 | 43.53677 | 16.29575 | 87 ft | 8 kts | 133° |
| 2026-04-27 14:21 | 43.53676 | 16.29639 | 87 ft | 0 kts | 62° |
| 2026-04-27 14:22 | 43.53677 | 16.29639 | 87 ft | 0 kts | 62° |
| 2026-04-27 14:22 | 43.53706 | 16.29700 | 82 ft | 14 kts | 53° |
| 2026-04-27 14:22 | 43.53764 | 16.29805 | 82 ft | 14 kts | 52° |
| 2026-04-27 14:22 | 43.53776 | 16.29885 | 74 ft | 9 kts | 109° |
| 2026-04-27 14:23 | 43.53764 | 16.29924 | 78 ft | 0 kts | 114° |
| 2026-04-27 14:23 | 43.53760 | 16.29934 | 71 ft | 0 kts | 114° |